Time;durP1;ratioP1;P1;durP2;ratioP2;P2;SDS_P1;SDS_P2;PMS_P1;PMS_P2;Temp;Humidity;BMP_temperature;BMP_pressure;BME280_temperature;BME280_humidity;BME280_pressure;Samples;Min_cycle;Max_cycle;Signal;HPM_P1;HPM_P2
2022/11/15 00:00:25;;;;;;;36.95;16.23;;;;;;;;;;6274963;22;20419;-78
2022/11/15 00:02:52;;;;;;;40.85;16.73;;;;;;;;;;6275250;22;20083;-78
2022/11/15 00:05:18;;;;;;;41.30;17.23;;;;;;;;;;6274199;22;20430;-78
2022/11/15 00:07:43;;;;;;;35.88;16.17;;;;;;;;;;6274718;22;20000;-78
2022/11/15 00:10:08;;;;;;;39.05;16.13;;;;;;;;;;6278573;22;20043;-77
2022/11/15 00:12:34;;;;;;;39.53;15.23;;;;;;;;;;6274992;22;20038;-77
2022/11/15 00:15:00;;;;;;;35.20;15.23;;;;;;;;;;6273379;22;19999;-78
2022/11/15 00:17:25;;;;;;;43.60;15.75;;;;;;;;;;6272449;22;20003;-77
2022/11/15 00:19:51;;;;;;;38.97;15.63;;;;;;;;;;6274422;22;19996;-77
2022/11/15 00:22:17;;;;;;;37.00;15.77;;;;;;;;;;6274614;22;20007;-77
2022/11/15 00:24:42;;;;;;;35.42;15.38;;;;;;;;;;6274728;22;20061;-78
2022/11/15 00:27:08;;;;;;;32.53;15.20;;;;;;;;;;6274810;22;20011;-78
2022/11/15 00:29:33;;;;;;;37.10;15.57;;;;;;;;;;6275795;22;20330;-77
2022/11/15 00:31:59;;;;;;;32.63;14.43;;;;;;;;;;6277469;22;20004;-76
2022/11/15 00:34:24;;;;;;;39.80;15.30;;;;;;;;;;6272758;22;20039;-76
2022/11/15 00:36:50;;;;;;;36.45;14.88;;;;;;;;;;6274875;22;20082;-77
2022/11/15 00:39:15;;;;;;;36.83;14.80;;;;;;;;;;6274935;22;19996;-78
2022/11/15 00:41:40;;;;;;;33.08;15.02;;;;;;;;;;6274544;22;20091;-77
2022/11/15 00:44:06;;;;;;;34.20;15.45;;;;;;;;;;6274372;22;20525;-77
2022/11/15 00:46:31;;;;;;;35.75;14.73;;;;;;;;;;6274145;22;20004;-77
2022/11/15 00:48:57;;;;;;;33.78;14.93;;;;;;;;;;6274158;22;20023;-76
2022/11/15 00:51:23;;;;;;;34.72;15.27;;;;;;;;;;6276399;22;20420;-77
2022/11/15 00:53:48;;;;;;;38.03;15.40;;;;;;;;;;6274417;22;20434;-76
2022/11/15 00:56:14;;;;;;;34.97;15.57;;;;;;;;;;6272929;22;20087;-76
2022/11/15 00:58:39;;;;;;;32.78;15.10;;;;;;;;;;6273027;22;20004;-78
2022/11/15 01:01:10;;;;;;;33.40;15.50;;;;;;;;;;6273059;22;20015;-77
2022/11/15 01:03:35;;;;;;;;;;;;;;;;;;6274329;22;20065;-78
2022/11/15 01:06:01;;;;;;;31.02;13.93;;;;;;;;;;6274383;22;19989;-77
2022/11/15 01:08:26;;;;;;;36.15;14.98;;;;;;;;;;6274366;22;20007;-78
2022/11/15 01:10:52;;;;;;;34.95;14.68;;;;;;;;;;6275038;22;20006;-77
2022/11/15 01:13:17;;;;;;;33.42;15.07;;;;;;;;;;6277474;22;20000;-77
2022/11/15 01:15:42;;;;;;;30.02;14.15;;;;;;;;;;6273068;22;20328;-76
2022/11/15 01:18:08;;;;;;;33.00;14.57;;;;;;;;;;6274143;22;20007;-78
2022/11/15 01:20:34;;;;;;;34.28;14.93;;;;;;;;;;6272053;22;20003;-78
2022/11/15 01:22:59;;;;;;;36.28;14.82;;;;;;;;;;6272803;22;19996;-78
2022/11/15 01:25:25;;;;;;;33.10;14.98;;;;;;;;;;6274138;22;20342;-78
2022/11/15 01:27:50;;;;;;;32.08;14.80;;;;;;;;;;6274282;22;20077;-77
2022/11/15 01:30:16;;;;;;;38.55;15.38;;;;;;;;;;6274366;22;20028;-77
2022/11/15 01:32:41;;;;;;;39.85;15.55;;;;;;;;;;6279667;22;20010;-76
2022/11/15 01:35:07;;;;;;;35.25;15.60;;;;;;;;;;6276093;22;20000;-77
2022/11/15 01:37:33;;;;;;;36.67;15.70;;;;;;;;;;6274420;22;20050;-78
2022/11/15 01:39:58;;;;;;;35.55;15.55;;;;;;;;;;6274310;22;20010;-78
2022/11/15 01:42:23;;;;;;;35.40;15.82;;;;;;;;;;6274237;22;20416;-77
2022/11/15 01:44:50;;;;;;;34.85;15.00;;;;;;;;;;6274046;22;20011;-77
2022/11/15 01:47:43;;;;;;;35.42;15.43;;;;;;;;;;6274288;22;20006;-77
2022/11/15 01:50:10;;;;;;;33.88;14.88;;;;;;;;;;6268800;22;20004;-77
2022/11/15 01:52:36;;;;;;;32.17;14.93;;;;;;;;;;6249797;22;19996;-77
2022/11/15 01:55:09;;;;;;;35.15;16.13;;;;;;;;;;6274736;22;19999;-77
2022/11/15 01:57:35;;;;;;;33.78;15.15;;;;;;;;;;6273974;22;20003;-78
2022/11/15 02:00:01;;;;;;;34.72;16.45;;;;;;;;;;6274827;22;20422;-78
2022/11/15 02:02:26;;;;;;;37.90;16.73;;;;;;;;;;6248880;22;20099;-78
2022/11/15 02:04:51;;;;;;;41.67;17.23;;;;;;;;;;6274369;22;20007;-78
2022/11/15 02:07:18;;;;;;;36.22;15.43;;;;;;;;;;6275091;22;20041;-78
2022/11/15 02:09:44;;;;;;;35.95;15.48;;;;;;;;;;6249350;22;20011;-78
2022/11/15 02:12:09;;;;;;;36.35;16.35;;;;;;;;;;6276086;22;19999;-77
2022/11/15 02:14:36;;;;;;;38.80;16.10;;;;;;;;;;6284463;22;20445;-77
2022/11/15 02:17:49;;;;;;;37.15;16.70;;;;;;;;;;6275617;22;20102;-77
2022/11/15 02:20:50;;;;;;;39.67;16.55;;;;;;;;;;6270607;22;20004;-77
2022/11/15 02:23:40;;;;;;;32.55;15.60;;;;;;;;;;6264112;22;20003;-77
2022/11/15 02:26:32;;;;;;;42.72;18.55;;;;;;;;;;6275720;22;20007;-78
2022/11/15 02:29:19;;;;;;;38.70;16.92;;;;;;;;;;6274325;22;20030;-77
2022/11/15 02:32:27;;;;;;;44.35;17.20;;;;;;;;;;6250550;22;20008;-77
2022/11/15 02:35:31;;;;;;;34.45;15.85;;;;;;;;;;6276792;22;20010;-77
2022/11/15 02:37:57;;;;;;;41.97;16.77;;;;;;;;;;6250580;22;20014;-77
2022/11/15 02:41:01;;;;;;;44.20;16.50;;;;;;;;;;6281462;22;20007;-76
2022/11/15 02:43:56;;;;;;;39.75;18.42;;;;;;;;;;6272561;22;20427;-78
2022/11/15 02:49:30;;;;;;;37.42;17.40;;;;;;;;;;6274412;22;20073;-77
2022/11/15 02:51:55;;;;;;;47.95;20.20;;;;;;;;;;6274222;22;20288;-76
2022/11/15 02:54:39;;;;;;;53.63;25.42;;;;;;;;;;6274459;22;20011;-77
2022/11/15 02:57:06;;;;;;;53.25;24.08;;;;;;;;;;6280522;22;20000;-77
2022/11/15 02:59:46;;;;;;;58.30;26.48;;;;;;;;;;6273801;22;20003;-78
2022/11/15 03:02:37;;;;;;;61.70;28.48;;;;;;;;;;6274111;22;20489;-78
2022/11/15 03:05:09;;;;;;;62.28;28.38;;;;;;;;;;6273999;22;20014;-77
2022/11/15 03:07:59;;;;;;;60.50;27.92;;;;;;;;;;6249427;22;20083;-77
2022/11/15 03:10:32;;;;;;;54.70;24.87;;;;;;;;;;6275633;22;20000;-77
2022/11/15 03:13:05;;;;;;;55.80;24.98;;;;;;;;;;6275394;22;20020;-79
2022/11/15 03:15:32;;;;;;;49.25;22.80;;;;;;;;;;6254048;22;20137;-77
2022/11/15 03:18:04;;;;;;;46.78;21.65;;;;;;;;;;6273882;22;20004;-78
2022/11/15 03:20:30;;;;;;;49.75;21.65;;;;;;;;;;6274089;22;20066;-77
2022/11/15 03:23:04;;;;;;;50.95;25.13;;;;;;;;;;6275220;22;20437;-79
2022/11/15 03:25:29;;;;;;;63.88;27.75;;;;;;;;;;6224604;22;20008;-77
2022/11/15 03:27:56;;;;;;;60.38;26.60;;;;;;;;;;6247814;22;20500;-78
2022/11/15 03:30:21;;;;;;;57.88;26.05;;;;;;;;;;6274101;22;19999;-77
2022/11/15 03:32:50;;;;;;;55.88;26.40;;;;;;;;;;6223052;22;20102;-76
2022/11/15 03:35:21;;;;;;;52.30;25.05;;;;;;;;;;6227812;22;20008;-77
2022/11/15 03:38:05;;;;;;;66.35;24.80;;;;;;;;;;6249748;22;20403;-79
2022/11/15 03:40:38;;;;;;;56.08;24.35;;;;;;;;;;6275106;22;20003;-78
2022/11/15 03:43:24;;;;;;;52.35;23.15;;;;;;;;;;6273237;22;20006;-77
2022/11/15 03:45:54;;;;;;;54.08;21.83;;;;;;;;;;6249957;22;20092;-77
2022/11/15 03:48:24;;;;;;;47.17;22.48;;;;;;;;;;6248787;22;20070;-77
2022/11/15 03:50:50;;;;;;;51.20;25.75;;;;;;;;;;6248271;22;20050;-77
2022/11/15 03:53:15;;;;;;;51.78;26.25;;;;;;;;;;6248226;22;20000;-77
2022/11/15 03:55:40;;;;;;;52.63;25.27;;;;;;;;;;6278582;22;20011;-77
2022/11/15 03:58:06;;;;;;;52.17;24.35;;;;;;;;;;6277092;22;20628;-77
2022/11/15 04:00:31;;;;;;;53.10;24.73;;;;;;;;;;6274255;22;20415;-78
2022/11/15 04:02:57;;;;;;;53.13;24.15;;;;;;;;;;6275039;22;20423;-77
2022/11/15 04:05:22;;;;;;;57.58;23.90;;;;;;;;;;6274509;22;20015;-78
2022/11/15 04:07:48;;;;;;;59.00;24.05;;;;;;;;;;6274864;22;20002;-77
2022/11/15 04:10:13;;;;;;;52.75;22.15;;;;;;;;;;6274843;22;20382;-78
2022/11/15 04:12:42;;;;;;;49.65;23.75;;;;;;;;;;6274392;22;20086;-77
2022/11/15 04:15:10;;;;;;;58.78;23.83;;;;;;;;;;6274712;22;20008;-77
2022/11/15 04:17:43;;;;;;;54.63;23.30;;;;;;;;;;6279888;22;20137;-77
2022/11/15 04:25:42;;;;;;;62.92;25.60;;;;;;;;;;6271989;22;20020;-78
2022/11/15 04:28:08;;;;;;;58.75;24.67;;;;;;;;;;6273127;22;20000;-77
2022/11/15 04:30:33;;;;;;;55.53;23.77;;;;;;;;;;6274722;22;20007;-77
2022/11/15 04:32:59;;;;;;;57.13;25.13;;;;;;;;;;6273333;22;20008;-77
2022/11/15 04:35:25;;;;;;;54.38;23.15;;;;;;;;;;6273234;22;20000;-77
2022/11/15 04:37:50;;;;;;;53.47;23.50;;;;;;;;;;6280013;22;20063;-77
2022/11/15 04:40:16;;;;;;;60.28;23.60;;;;;;;;;;6274360;22;20231;-77
2022/11/15 04:42:44;;;;;;;53.78;22.95;;;;;;;;;;6274578;22;20114;-77
2022/11/15 04:45:10;;;;;;;47.90;20.50;;;;;;;;;;6273102;22;20007;-77
2022/11/15 04:47:35;;;;;;;50.63;21.50;;;;;;;;;;6273182;22;20035;-77
2022/11/15 04:50:01;;;;;;;51.03;22.70;;;;;;;;;;6274634;22;20011;-77
2022/11/15 04:52:27;;;;;;;57.90;26.27;;;;;;;;;;6273143;22;20000;-77
2022/11/15 04:54:53;;;;;;;52.13;22.77;;;;;;;;;;6272704;22;20459;-77
2022/11/15 04:57:18;;;;;;;47.53;20.92;;;;;;;;;;6273122;22;20070;-77
2022/11/15 04:59:43;;;;;;;50.17;21.70;;;;;;;;;;6274625;22;20395;-77
2022/11/15 05:02:09;;;;;;;53.17;21.30;;;;;;;;;;6274582;22;20362;-78
2022/11/15 05:04:34;;;;;;;55.58;21.95;;;;;;;;;;6274482;22;20003;-77
2022/11/15 05:09:48;;;;;;;54.25;21.10;;;;;;;;;;6244610;22;20026;-84
2022/11/15 05:12:20;;;;;;;55.28;22.58;;;;;;;;;;6243973;23;20371;-79
2022/11/15 05:14:45;;;;;;;51.25;21.75;;;;;;;;;;6217621;23;20335;-78
2022/11/15 05:17:11;;;;;;;58.10;22.42;;;;;;;;;;6243745;23;20001;-78
2022/11/15 05:19:36;;;;;;;53.85;22.25;;;;;;;;;;6249286;23;20475;-78
2022/11/15 05:22:02;;;;;;;55.08;21.05;;;;;;;;;;6242383;23;20416;-77
2022/11/15 05:24:27;;;;;;;53.22;20.67;;;;;;;;;;6244152;23;20047;-77
2022/11/15 05:26:53;;;;;;;47.30;19.33;;;;;;;;;;6243488;23;20115;-78
2022/11/15 05:29:18;;;;;;;51.00;19.67;;;;;;;;;;6242339;23;20008;-78
2022/11/15 05:31:44;;;;;;;54.08;19.85;;;;;;;;;;6243042;23;20005;-78
2022/11/15 05:34:09;;;;;;;49.38;19.40;;;;;;;;;;6245910;23;20312;-78
2022/11/15 05:36:37;;;;;;;44.13;18.83;;;;;;;;;;6245837;23;20011;-78
2022/11/15 05:39:04;;;;;;;48.75;19.00;;;;;;;;;;6219052;23;19996;-78
2022/11/15 05:41:34;;;;;;;49.13;19.70;;;;;;;;;;6250838;23;20057;-80
2022/11/15 05:44:07;;;;;;;62.28;22.33;;;;;;;;;;6219392;23;20327;-77
2022/11/15 05:46:33;;;;;;;60.40;20.50;;;;;;;;;;6243210;23;20011;-77
2022/11/15 05:48:59;;;;;;;54.13;20.23;;;;;;;;;;6218740;23;20028;-78
2022/11/15 05:51:25;;;;;;;52.40;21.23;;;;;;;;;;6218454;23;20458;-78
2022/11/15 05:53:53;;;;;;;66.75;22.83;;;;;;;;;;6241354;23;20004;-76
2022/11/15 05:56:19;;;;;;;61.75;21.73;;;;;;;;;;6239752;23;20016;-77
2022/11/15 05:58:44;;;;;;;60.30;21.90;;;;;;;;;;6240134;23;20011;-77
2022/11/15 06:01:10;;;;;;;54.85;22.42;;;;;;;;;;6240185;22;20570;-78
2022/11/15 06:03:36;;;;;;;58.38;21.80;;;;;;;;;;6213207;23;20027;-78
2022/11/15 06:06:02;;;;;;;51.95;21.02;;;;;;;;;;6238612;23;20000;-78
2022/11/15 06:08:28;;;;;;;70.90;30.42;;;;;;;;;;6240345;23;20395;-79
2022/11/15 06:10:54;;;;;;;80.78;36.25;;;;;;;;;;6209707;23;20000;-77
2022/11/15 06:13:19;;;;;;;73.70;32.92;;;;;;;;;;6235269;23;20424;-77
2022/11/15 06:15:56;;;;;;;95.05;49.72;;;;;;;;;;6238692;22;20004;-79
2022/11/15 06:18:25;;;;;;;75.35;35.67;;;;;;;;;;6214059;23;20004;-79
2022/11/15 06:20:55;;;;;;;183.50;104.72;;;;;;;;;;6238411;23;20079;-77
2022/11/15 06:23:21;;;;;;;122.85;65.32;;;;;;;;;;6214732;23;20019;-78
2022/11/15 06:25:46;;;;;;;101.47;46.80;;;;;;;;;;6241138;22;20484;-78
2022/11/15 06:28:12;;;;;;;68.35;31.98;;;;;;;;;;6237575;23;20096;-79
2022/11/15 06:30:37;;;;;;;71.25;35.78;;;;;;;;;;6240743;23;20465;-79
2022/11/15 06:33:04;;;;;;;69.05;28.25;;;;;;;;;;6242160;22;20000;-78
2022/11/15 06:35:30;;;;;;;60.58;27.70;;;;;;;;;;6243389;22;20039;-78
2022/11/15 06:37:55;;;;;;;62.97;27.80;;;;;;;;;;6244678;22;20427;-78
2022/11/15 06:40:24;;;;;;;66.88;28.88;;;;;;;;;;6244211;23;20058;-78
2022/11/15 06:42:49;;;;;;;68.07;27.75;;;;;;;;;;6244984;23;20031;-77
2022/11/15 06:45:24;;;;;;;66.88;28.50;;;;;;;;;;6242334;22;20454;-77
2022/11/15 06:47:49;;;;;;;63.70;25.88;;;;;;;;;;6215406;23;20079;-77
2022/11/15 06:50:15;;;;;;;64.65;30.90;;;;;;;;;;6238841;22;20150;-78
2022/11/15 06:52:40;;;;;;;73.93;28.35;;;;;;;;;;6238604;23;20496;-77
2022/11/15 06:55:09;;;;;;;69.40;27.83;;;;;;;;;;6237698;23;20046;-78
2022/11/15 06:57:35;;;;;;;65.88;27.90;;;;;;;;;;6235217;22;20034;-78
2022/11/15 07:00:05;;;;;;;65.25;25.67;;;;;;;;;;6236407;22;20008;-79
2022/11/15 07:02:30;;;;;;;59.80;24.23;;;;;;;;;;6237775;23;20008;-77
2022/11/15 07:04:56;;;;;;;66.43;25.52;;;;;;;;;;6237588;23;20224;-77
2022/11/15 07:07:21;;;;;;;58.05;25.33;;;;;;;;;;6236761;23;20574;-77
2022/11/15 07:09:47;;;;;;;52.40;22.27;;;;;;;;;;6236979;23;20012;-77
2022/11/15 07:12:12;;;;;;;52.35;22.63;;;;;;;;;;6238675;23;19996;-76
2022/11/15 07:14:38;;;;;;;52.13;22.20;;;;;;;;;;6239529;22;20012;-77
2022/11/15 07:17:04;;;;;;;55.92;24.88;;;;;;;;;;6237102;23;19996;-77
2022/11/15 07:19:30;;;;;;;63.50;24.83;;;;;;;;;;6241445;22;20004;-74
2022/11/15 07:21:55;;;;;;;55.65;24.63;;;;;;;;;;6243925;22;20383;-73
2022/11/15 07:24:21;;;;;;;56.97;23.73;;;;;;;;;;6237842;23;20046;-76
2022/11/15 07:26:46;;;;;;;52.05;23.40;;;;;;;;;;6242307;23;20031;-76
2022/11/15 07:29:12;;;;;;;54.17;23.90;;;;;;;;;;6242602;22;20079;-78
2022/11/15 07:31:38;;;;;;;49.88;24.05;;;;;;;;;;6239299;23;20004;-77
2022/11/15 07:34:04;;;;;;;56.28;24.70;;;;;;;;;;6242631;22;20011;-74
2022/11/15 07:36:29;;;;;;;52.47;23.30;;;;;;;;;;6243156;22;20678;-75
2022/11/15 07:38:55;;;;;;;51.83;22.73;;;;;;;;;;6245913;23;20008;-74
2022/11/15 07:41:20;;;;;;;50.08;22.33;;;;;;;;;;6242987;23;19996;-77
2022/11/15 07:43:46;;;;;;;51.03;22.45;;;;;;;;;;6242133;22;20039;-78
2022/11/15 07:46:11;;;;;;;53.03;23.85;;;;;;;;;;6242147;23;20355;-78
2022/11/15 07:48:39;;;;;;;51.97;23.42;;;;;;;;;;6241637;23;20010;-79
2022/11/15 07:51:05;;;;;;;48.65;21.17;;;;;;;;;;6240095;22;20004;-78
2022/11/15 07:53:31;;;;;;;50.05;20.90;;;;;;;;;;6239456;22;20008;-79
2022/11/15 07:55:56;;;;;;;46.70;19.77;;;;;;;;;;6240072;23;20072;-79
2022/11/15 07:58:22;;;;;;;45.08;20.05;;;;;;;;;;6245103;23;20347;-78
2022/11/15 08:00:47;;;;;;;45.65;20.70;;;;;;;;;;6245069;23;20015;-78
2022/11/15 08:03:16;;;;;;;50.65;21.52;;;;;;;;;;6238919;23;20007;-77
2022/11/15 08:05:42;;;;;;;43.42;22.35;;;;;;;;;;6237062;23;20015;-77
2022/11/15 08:08:11;;;;;;;44.10;21.63;;;;;;;;;;6239187;22;20004;-77
2022/11/15 08:10:37;;;;;;;46.72;21.33;;;;;;;;;;6237463;23;20004;-79
2022/11/15 08:13:04;;;;;;;43.55;21.00;;;;;;;;;;6239533;22;20007;-76
2022/11/15 08:15:30;;;;;;;44.00;21.83;;;;;;;;;;6234912;23;20451;-77
2022/11/15 08:18:00;;;;;;;52.20;21.95;;;;;;;;;;6239153;22;20000;-77
2022/11/15 08:20:29;;;;;;;45.65;21.98;;;;;;;;;;6237108;23;20008;-78
2022/11/15 08:22:56;;;;;;;45.25;20.30;;;;;;;;;;6238460;22;20390;-78
2022/11/15 08:25:22;;;;;;;50.47;22.92;;;;;;;;;;6238762;22;20317;-77
2022/11/15 08:27:47;;;;;;;53.38;25.58;;;;;;;;;;6238457;23;20007;-78
2022/11/15 08:30:13;;;;;;;49.13;25.25;;;;;;;;;;6210944;23;20004;-78
2022/11/15 08:32:39;;;;;;;43.15;21.92;;;;;;;;;;6236762;23;20367;-77
2022/11/15 08:35:05;;;;;;;49.17;21.05;;;;;;;;;;6235939;23;20083;-79
2022/11/15 08:37:31;;;;;;;40.40;17.42;;;;;;;;;;6238634;22;20008;-78
2022/11/15 08:39:56;;;;;;;43.80;21.80;;;;;;;;;;6236695;23;20012;-78
2022/11/15 08:42:22;;;;;;;48.47;21.55;;;;;;;;;;6236129;23;20046;-78
2022/11/15 08:44:47;;;;;;;30.40;16.05;;;;;;;;;;6236501;23;20011;-77
2022/11/15 08:47:13;;;;;;;39.50;18.40;;;;;;;;;;6238557;23;20622;-76
2022/11/15 08:49:39;;;;;;;39.55;18.73;;;;;;;;;;6234518;23;20004;-78
2022/11/15 08:52:04;;;;;;;36.03;17.98;;;;;;;;;;6236245;23;20079;-78
2022/11/15 08:54:31;;;;;;;38.25;17.48;;;;;;;;;;6236790;23;20019;-76
2022/11/15 08:56:57;;;;;;;39.83;19.17;;;;;;;;;;6236490;22;20593;-78
2022/11/15 08:59:23;;;;;;;39.80;18.65;;;;;;;;;;6234348;23;20345;-75
2022/11/15 09:01:51;;;;;;;45.20;19.70;;;;;;;;;;6233675;23;20077;-77
2022/11/15 09:04:16;;;;;;;36.47;18.67;;;;;;;;;;6235918;23;20111;-74
2022/11/15 09:06:42;;;;;;;43.42;20.25;;;;;;;;;;6239096;23;20004;-76
2022/11/15 09:09:07;;;;;;;43.20;21.30;;;;;;;;;;6240877;23;20309;-77
2022/11/15 09:11:33;;;;;;;45.10;20.70;;;;;;;;;;6240370;23;20040;-75
2022/11/15 09:13:59;;;;;;;45.20;19.67;;;;;;;;;;6240411;22;20000;-75
2022/11/15 09:16:25;;;;;;;42.75;20.85;;;;;;;;;;6243382;23;20062;-75
2022/11/15 09:18:50;;;;;;;43.28;19.75;;;;;;;;;;6240624;22;20008;-76
2022/11/15 09:21:16;;;;;;;40.55;19.67;;;;;;;;;;6240892;22;20446;-77
2022/11/15 09:23:41;;;;;;;43.38;20.25;;;;;;;;;;6213868;23;20412;-76
2022/11/15 09:26:07;;;;;;;38.83;19.02;;;;;;;;;;6241850;23;20079;-76
2022/11/15 09:28:33;;;;;;;40.63;20.30;;;;;;;;;;6242668;23;20011;-79
2022/11/15 09:31:06;;;;;;;39.95;18.80;;;;;;;;;;6242155;22;20008;-75
2022/11/15 09:33:31;;;;;;;39.92;18.17;;;;;;;;;;6242466;22;20000;-76
2022/11/15 09:36:04;;;;;;;36.25;18.60;;;;;;;;;;6249187;22;20392;-76
2022/11/15 09:38:36;;;;;;;40.67;19.45;;;;;;;;;;6241692;23;20004;-76
2022/11/15 09:41:33;;;;;;;38.28;18.65;;;;;;;;;;6242017;23;19996;-76
2022/11/15 09:44:42;;;;;;;35.83;17.63;;;;;;;;;;6243201;23;20142;-75
2022/11/15 09:47:42;;;;;;;35.45;17.95;;;;;;;;;;6120827;23;20127;-76
2022/11/15 09:50:12;;;;;;;39.03;17.52;;;;;;;;;;6175444;22;20016;-77
2022/11/15 09:52:42;;;;;;;39.83;19.42;;;;;;;;;;6241178;22;20011;-77
2022/11/15 09:55:09;;;;;;;41.03;20.80;;;;;;;;;;6242114;23;20004;-78
2022/11/15 09:57:50;;;;;;;42.67;20.20;;;;;;;;;;6214788;23;20431;-75
2022/11/15 10:00:34;;;;;;;43.03;19.63;;;;;;;;;;6239912;23;20027;-77
2022/11/15 10:03:11;;;;;;;42.67;18.33;;;;;;;;;;6243100;23;20207;-77
2022/11/15 10:05:44;;;;;;;39.47;19.50;;;;;;;;;;6240749;23;20012;-77
2022/11/15 10:08:25;;;;;;;38.75;19.33;;;;;;;;;;6242237;22;20203;-76
2022/11/15 10:11:00;;;;;;;36.85;17.80;;;;;;;;;;6239552;23;20007;-77
2022/11/15 10:13:26;;;;;;;40.75;18.83;;;;;;;;;;6215003;23;20082;-76
2022/11/15 10:15:53;;;;;;;38.30;18.17;;;;;;;;;;6241601;23;20071;-77
2022/11/15 10:18:38;;;;;;;38.70;18.55;;;;;;;;;;6238796;23;20058;-77
2022/11/15 10:21:17;;;;;;;38.67;16.65;;;;;;;;;;6241672;22;20042;-77
2022/11/15 10:23:42;;;;;;;30.05;15.00;;;;;;;;;;6217964;23;20004;-77
2022/11/15 10:26:11;;;;;;;28.40;13.55;;;;;;;;;;6243078;23;20004;-77
2022/11/15 10:28:45;;;;;;;29.65;15.55;;;;;;;;;;6216732;23;20074;-75
2022/11/15 10:31:27;;;;;;;29.88;15.30;;;;;;;;;;6242408;23;20004;-78
2022/11/15 10:34:13;;;;;;;33.63;15.75;;;;;;;;;;6242940;23;20054;-77
2022/11/15 10:36:38;;;;;;;37.38;16.88;;;;;;;;;;6244719;22;20047;-77
2022/11/15 10:39:04;;;;;;;32.85;15.32;;;;;;;;;;6244335;23;20004;-77
2022/11/15 10:41:38;;;;;;;32.55;15.02;;;;;;;;;;6244092;23;20000;-77
2022/11/15 10:44:16;;;;;;;30.75;15.07;;;;;;;;;;6243687;23;20383;-76
2022/11/15 10:46:43;;;;;;;23.52;12.57;;;;;;;;;;6241865;22;20003;-77
2022/11/15 10:49:16;;;;;;;29.13;12.95;;;;;;;;;;6239480;23;20004;-78
2022/11/15 10:51:45;;;;;;;29.25;14.52;;;;;;;;;;6243868;22;20020;-77
2022/11/15 10:54:11;;;;;;;27.48;13.70;;;;;;;;;;6214702;23;20602;-77
2022/11/15 10:56:37;;;;;;;25.58;13.55;;;;;;;;;;6228701;23;20061;-78
2022/11/15 10:59:02;;;;;;;20.88;11.32;;;;;;;;;;6233236;22;20040;-78
2022/11/15 11:01:29;;;;;;;21.33;12.25;;;;;;;;;;6236498;23;20420;-78
2022/11/15 11:04:08;;;;;;;22.55;12.70;;;;;;;;;;6238144;23;20028;-78
2022/11/15 11:06:50;;;;;;;25.42;13.13;;;;;;;;;;6237950;23;20008;-78
2022/11/15 11:09:30;;;;;;;23.05;12.98;;;;;;;;;;6212715;23;20091;-79
2022/11/15 11:11:56;;;;;;;21.90;11.55;;;;;;;;;;6240499;23;20043;-78
2022/11/15 11:14:31;;;;;;;19.70;11.23;;;;;;;;;;6242004;22;19992;-77
2022/11/15 11:17:02;;;;;;;23.70;13.27;;;;;;;;;;6239185;22;20004;-77
2022/11/15 11:19:39;;;;;;;22.58;11.68;;;;;;;;;;6242140;23;20008;-78
2022/11/15 11:22:29;;;;;;;24.80;12.18;;;;;;;;;;6242392;23;20040;-77
2022/11/15 11:25:05;;;;;;;25.50;14.40;;;;;;;;;;6242718;23;20090;-76
2022/11/15 11:27:52;;;;;;;28.15;14.80;;;;;;;;;;6241032;23;20004;-76
2022/11/15 11:30:21;;;;;;;25.45;13.38;;;;;;;;;;6242417;23;20502;-75
2022/11/15 11:32:57;;;;;;;28.60;13.32;;;;;;;;;;6215656;23;20071;-76
2022/11/15 11:35:24;;;;;;;25.38;12.88;;;;;;;;;;6239859;23;20428;-77
2022/11/15 11:38:07;;;;;;;23.58;12.38;;;;;;;;;;6242798;23;20054;-79
2022/11/15 11:40:57;;;;;;;25.80;12.77;;;;;;;;;;6243052;23;20008;-78
2022/11/15 11:43:26;;;;;;;30.95;13.80;;;;;;;;;;6214050;23;20004;-76
2022/11/15 11:46:15;;;;;;;27.25;12.93;;;;;;;;;;6243062;22;20363;-80
2022/11/15 11:48:45;;;;;;;30.67;16.65;;;;;;;;;;6197750;22;20019;-77
2022/11/15 11:51:24;;;;;;;;;;;;;;;;;;6243650;23;20035;-77
2022/11/15 11:54:12;;;;;;;25.75;12.55;;;;;;;;;;6242916;22;20025;-77
2022/11/15 11:56:39;;;;;;;23.33;12.18;;;;;;;;;;6238808;23;20007;-79
2022/11/15 11:59:35;;;;;;;36.33;18.00;;;;;;;;;;6241754;23;20012;-79
2022/11/15 12:02:09;;;;;;;29.15;14.88;;;;;;;;;;6242899;23;20036;-80
2022/11/15 12:04:40;;;;;;;25.13;12.90;;;;;;;;;;6215984;23;20134;-75
2022/11/15 12:07:10;;;;;;;;;;;;;;;;;;6242812;23;20027;-78
2022/11/15 12:09:36;;;;;;;;;;;;;;;;;;6238359;23;19922;-78
2022/11/15 12:12:23;;;;;;;23.65;12.13;;;;;;;;;;6243131;22;19912;-77
2022/11/15 12:14:53;;;;;;;25.33;13.10;;;;;;;;;;6241164;22;20062;-77
2022/11/15 12:17:24;;;;;;;24.38;11.93;;;;;;;;;;6240420;22;20461;-77
2022/11/15 12:19:49;;;;;;;21.58;11.57;;;;;;;;;;6215407;23;20513;-78
2022/11/15 12:22:34;;;;;;;25.92;13.07;;;;;;;;;;6240102;23;20000;-77
2022/11/15 12:25:02;;;;;;;21.75;12.07;;;;;;;;;;6238653;23;20008;-76
2022/11/15 12:27:42;;;;;;;30.73;13.75;;;;;;;;;;6239855;23;20054;-76
2022/11/15 12:30:27;;;;;;;27.88;14.23;;;;;;;;;;6240664;23;20012;-76
2022/11/15 12:32:59;;;;;;;40.08;17.30;;;;;;;;;;6213441;23;20068;-78
2022/11/15 12:35:41;;;;;;;31.92;15.88;;;;;;;;;;6209908;23;20082;-78
2022/11/15 12:38:10;;;;;;;29.48;15.20;;;;;;;;;;6235452;22;20035;-78
2022/11/15 12:41:17;;;;;;;29.40;14.88;;;;;;;;;;6236342;22;20019;-78
2022/11/15 12:43:44;;;;;;;24.08;12.88;;;;;;;;;;6236267;23;20015;-77
2022/11/15 12:46:21;;;;;;;26.88;12.88;;;;;;;;;;6239829;23;20018;-78
2022/11/15 12:48:51;;;;;;;28.65;13.50;;;;;;;;;;6238426;23;20022;-80
2022/11/15 12:51:19;;;;;;;;;;;;;;;;;;6242423;23;20079;-77
2022/11/15 12:53:44;;;;;;;26.85;13.05;;;;;;;;;;6236750;23;19942;-80
2022/11/15 12:56:14;;;;;;;31.92;14.68;;;;;;;;;;6238185;22;20000;-77
2022/11/15 12:58:56;;;;;;;38.10;18.90;;;;;;;;;;6239152;23;20027;-77
2022/11/15 13:01:31;;;;;;;28.23;14.00;;;;;;;;;;6240324;22;20008;-77
2022/11/15 13:04:21;;;;;;;27.65;14.13;;;;;;;;;;6241454;22;20090;-77
2022/11/15 13:06:56;;;;;;;31.15;14.35;;;;;;;;;;6242904;22;19996;-75
2022/11/15 13:09:35;;;;;;;33.75;15.27;;;;;;;;;;6242353;22;20441;-77
2022/11/15 13:12:09;;;;;;;30.20;14.90;;;;;;;;;;6243937;22;20368;-76
2022/11/15 13:14:37;;;;;;;27.77;14.85;;;;;;;;;;6243999;22;20004;-77
2022/11/15 13:17:21;;;;;;;31.42;14.75;;;;;;;;;;6244484;23;20004;-76
2022/11/15 13:19:48;;;;;;;33.28;15.05;;;;;;;;;;6244281;23;20000;-75
2022/11/15 13:24:58;;;;;;;30.73;15.63;;;;;;;;;;6244192;23;20066;-81
2022/11/15 13:27:23;;;;;;;33.40;16.75;;;;;;;;;;6243041;23;20035;-77
2022/11/15 13:29:49;;;;;;;31.63;16.00;;;;;;;;;;6243157;23;20000;-77
2022/11/15 13:32:15;;;;;;;33.25;15.95;;;;;;;;;;6246830;23;20007;-78
2022/11/15 13:34:46;;;;;;;31.85;15.43;;;;;;;;;;6217235;23;20011;-79
2022/11/15 13:37:20;;;;;;;34.75;16.10;;;;;;;;;;6217944;23;20000;-77
2022/11/15 13:39:47;;;;;;;34.88;16.13;;;;;;;;;;6244685;23;20001;-80
2022/11/15 13:42:19;;;;;;;40.75;20.55;;;;;;;;;;6217703;23;20435;-77
2022/11/15 13:45:02;;;;;;;35.95;16.17;;;;;;;;;;6242616;22;20031;-79
2022/11/15 13:47:28;;;;;;;34.33;16.05;;;;;;;;;;6217180;23;20011;-78
2022/11/15 13:49:56;;;;;;;36.03;16.55;;;;;;;;;;6242763;23;20001;-78
2022/11/15 13:52:22;;;;;;;34.20;16.02;;;;;;;;;;6244431;23;20043;-77
2022/11/15 13:54:55;;;;;;;37.17;16.35;;;;;;;;;;6219926;23;20004;-77
2022/11/15 13:57:22;;;;;;;36.20;16.27;;;;;;;;;;6218319;23;20001;-78
2022/11/15 14:00:26;;;;;;;35.47;17.25;;;;;;;;;;6218425;23;20027;-78
2022/11/15 14:02:52;;;;;;;30.98;15.75;;;;;;;;;;6210367;22;20069;-78
2022/11/15 14:05:19;;;;;;;32.92;16.67;;;;;;;;;;6243611;23;20012;-78
2022/11/15 14:07:55;;;;;;;33.90;17.17;;;;;;;;;;6218353;23;20171;-78
2022/11/15 14:10:31;;;;;;;35.92;16.75;;;;;;;;;;6246364;23;20004;-78
2022/11/15 14:12:57;;;;;;;30.73;15.40;;;;;;;;;;6245630;23;20349;-78
2022/11/15 14:15:34;;;;;;;28.52;15.35;;;;;;;;;;6243674;23;20451;-78
2022/11/15 14:18:00;;;;;;;29.25;14.70;;;;;;;;;;6218848;23;20026;-78
2022/11/15 14:20:25;;;;;;;30.45;15.77;;;;;;;;;;6218107;23;20432;-78
2022/11/15 14:22:55;;;;;;;39.13;16.20;;;;;;;;;;6245603;23;20008;-77
2022/11/15 14:25:22;;;;;;;32.72;16.02;;;;;;;;;;6219234;23;20321;-79
2022/11/15 14:28:13;;;;;;;31.27;15.93;;;;;;;;;;6218614;23;20367;-78
2022/11/15 14:30:39;;;;;;;33.80;16.10;;;;;;;;;;6245350;23;20420;-78
2022/11/15 14:33:18;;;;;;;37.47;18.05;;;;;;;;;;6199787;23;20015;-78
2022/11/15 14:35:43;;;;;;;33.88;16.80;;;;;;;;;;6218289;23;20011;-78
2022/11/15 14:38:09;;;;;;;32.05;15.93;;;;;;;;;;6218479;23;20000;-78
2022/11/15 14:40:34;;;;;;;33.97;18.15;;;;;;;;;;6218212;23;20062;-78
2022/11/15 14:43:00;;;;;;;33.03;17.67;;;;;;;;;;6245354;23;20344;-78
2022/11/15 14:45:27;;;;;;;30.73;15.60;;;;;;;;;;6243936;23;20007;-78
2022/11/15 14:47:52;;;;;;;35.78;17.70;;;;;;;;;;6243982;23;20004;-78
2022/11/15 14:50:19;;;;;;;33.03;17.58;;;;;;;;;;6243053;23;19996;-78